sensor_id;sensor_type;location;lat;lon;timestamp;temperature;humidity
16313;DHT22;8265;52.622;13.296;2022-10-26T00:04:50;8.00;99.90
16313;DHT22;8265;52.622;13.296;2022-10-26T00:10:11;8.00;99.90
16313;DHT22;8265;52.622;13.296;2022-10-26T00:15:32;7.90;99.90
16313;DHT22;8265;52.622;13.296;2022-10-26T00:20:53;7.90;99.90
16313;DHT22;8265;52.622;13.296;2022-10-26T00:26:14;7.80;99.90
16313;DHT22;8265;52.622;13.296;2022-10-26T00:31:35;7.80;99.90
16313;DHT22;8265;52.622;13.296;2022-10-26T00:36:56;7.90;99.90
16313;DHT22;8265;52.622;13.296;2022-10-26T00:42:19;7.80;99.90
16313;DHT22;8265;52.622;13.296;2022-10-26T00:47:39;7.70;99.90
16313;DHT22;8265;52.622;13.296;2022-10-26T00:52:59;7.80;99.90
16313;DHT22;8265;52.622;13.296;2022-10-26T00:58:19;7.70;99.90
16313;DHT22;8265;52.622;13.296;2022-10-26T01:03:40;7.60;99.90
16313;DHT22;8265;52.622;13.296;2022-10-26T01:09:01;7.50;99.90
16313;DHT22;8265;52.622;13.296;2022-10-26T01:14:22;7.50;99.90
16313;DHT22;8265;52.622;13.296;2022-10-26T01:20:32;7.50;99.90
16313;DHT22;8265;52.622;13.296;2022-10-26T01:25:08;7.50;99.90
16313;DHT22;8265;52.622;13.296;2022-10-26T01:30:31;7.40;99.90
16313;DHT22;8265;52.622;13.296;2022-10-26T01:35:50;7.40;99.90
16313;DHT22;8265;52.622;13.296;2022-10-26T01:41:10;7.40;99.90
16313;DHT22;8265;52.622;13.296;2022-10-26T01:46:29;7.30;99.90
16313;DHT22;8265;52.622;13.296;2022-10-26T01:51:49;7.40;99.90
16313;DHT22;8265;52.622;13.296;2022-10-26T01:57:10;7.30;99.90
16313;DHT22;8265;52.622;13.296;2022-10-26T02:02:47;7.20;99.90
16313;DHT22;8265;52.622;13.296;2022-10-26T02:07:54;7.10;99.90
16313;DHT22;8265;52.622;13.296;2022-10-26T02:13:16;7.10;99.90
16313;DHT22;8265;52.622;13.296;2022-10-26T02:18:35;7.10;99.90
16313;DHT22;8265;52.622;13.296;2022-10-26T02:23:55;7.20;99.90
16313;DHT22;8265;52.622;13.296;2022-10-26T02:29:16;7.40;99.90
16313;DHT22;8265;52.622;13.296;2022-10-26T02:34:37;7.40;99.90
16313;DHT22;8265;52.622;13.296;2022-10-26T02:39:58;7.30;99.90
16313;DHT22;8265;52.622;13.296;2022-10-26T02:45:20;7.20;99.90
16313;DHT22;8265;52.622;13.296;2022-10-26T02:50:42;7.10;99.90
16313;DHT22;8265;52.622;13.296;2022-10-26T02:56:03;6.90;99.90
16313;DHT22;8265;52.622;13.296;2022-10-26T03:01:21;6.90;99.90
16313;DHT22;8265;52.622;13.296;2022-10-26T03:06:45;6.90;99.90
16313;DHT22;8265;52.622;13.296;2022-10-26T03:12:04;6.90;99.90
16313;DHT22;8265;52.622;13.296;2022-10-26T03:17:24;6.80;99.90
16313;DHT22;8265;52.622;13.296;2022-10-26T03:22:46;6.80;99.90
16313;DHT22;8265;52.622;13.296;2022-10-26T03:28:06;6.90;99.90
16313;DHT22;8265;52.622;13.296;2022-10-26T03:33:27;6.90;99.90
16313;DHT22;8265;52.622;13.296;2022-10-26T03:38:48;6.90;99.90
16313;DHT22;8265;52.622;13.296;2022-10-26T03:44:09;6.70;99.90
16313;DHT22;8265;52.622;13.296;2022-10-26T03:49:30;6.80;99.90
16313;DHT22;8265;52.622;13.296;2022-10-26T03:54:51;6.80;99.90
16313;DHT22;8265;52.622;13.296;2022-10-26T04:00:14;6.80;99.90
16313;DHT22;8265;52.622;13.296;2022-10-26T04:05:33;6.80;99.90
16313;DHT22;8265;52.622;13.296;2022-10-26T04:10:54;6.70;99.90
16313;DHT22;8265;52.622;13.296;2022-10-26T04:16:15;6.70;99.90
16313;DHT22;8265;52.622;13.296;2022-10-26T04:21:36;6.60;99.90
16313;DHT22;8265;52.622;13.296;2022-10-26T04:26:57;6.70;99.90
16313;DHT22;8265;52.622;13.296;2022-10-26T04:32:18;6.50;99.90
16313;DHT22;8265;52.622;13.296;2022-10-26T04:37:39;6.50;99.90
16313;DHT22;8265;52.622;13.296;2022-10-26T04:43:00;6.40;99.90
16313;DHT22;8265;52.622;13.296;2022-10-26T04:48:21;6.40;99.90
16313;DHT22;8265;52.622;13.296;2022-10-26T04:53:42;6.30;99.90
16313;DHT22;8265;52.622;13.296;2022-10-26T04:59:03;6.20;99.90
16313;DHT22;8265;52.622;13.296;2022-10-26T05:04:24;6.20;99.90
16313;DHT22;8265;52.622;13.296;2022-10-26T05:09:45;6.40;99.90
16313;DHT22;8265;52.622;13.296;2022-10-26T05:15:08;6.20;99.90
16313;DHT22;8265;52.622;13.296;2022-10-26T05:20:27;6.30;99.90
16313;DHT22;8265;52.622;13.296;2022-10-26T05:25:47;6.30;99.90
16313;DHT22;8265;52.622;13.296;2022-10-26T05:31:08;6.20;99.90
16313;DHT22;8265;52.622;13.296;2022-10-26T05:36:29;6.20;99.90
16313;DHT22;8265;52.622;13.296;2022-10-26T05:41:50;6.10;99.90
16313;DHT22;8265;52.622;13.296;2022-10-26T05:47:11;6.20;99.90
16313;DHT22;8265;52.622;13.296;2022-10-26T05:52:37;6.40;99.90
16313;DHT22;8265;52.622;13.296;2022-10-26T05:57:54;6.60;99.90
16313;DHT22;8265;52.622;13.296;2022-10-26T06:03:18;6.40;99.90
16313;DHT22;8265;52.622;13.296;2022-10-26T06:08:36;6.20;99.90
16313;DHT22;8265;52.622;13.296;2022-10-26T06:13:57;6.40;99.90
16313;DHT22;8265;52.622;13.296;2022-10-26T06:19:23;6.20;99.90
16313;DHT22;8265;52.622;13.296;2022-10-26T06:24:40;6.50;99.90
16313;DHT22;8265;52.622;13.296;2022-10-26T06:30:00;6.40;99.90
16313;DHT22;8265;52.622;13.296;2022-10-26T06:35:23;6.40;99.90
16313;DHT22;8265;52.622;13.296;2022-10-26T06:40:41;6.40;99.90
16313;DHT22;8265;52.622;13.296;2022-10-26T06:46:04;6.40;99.90
16313;DHT22;8265;52.622;13.296;2022-10-26T06:51:23;6.60;99.90
16313;DHT22;8265;52.622;13.296;2022-10-26T06:56:44;6.90;99.90
16313;DHT22;8265;52.622;13.296;2022-10-26T07:02:05;7.00;99.90
16313;DHT22;8265;52.622;13.296;2022-10-26T07:07:26;7.20;99.90
16313;DHT22;8265;52.622;13.296;2022-10-26T07:12:47;7.50;99.90
16313;DHT22;8265;52.622;13.296;2022-10-26T07:18:08;7.80;99.90
16313;DHT22;8265;52.622;13.296;2022-10-26T07:23:29;8.00;99.90
16313;DHT22;8265;52.622;13.296;2022-10-26T07:28:50;8.20;99.90
16313;DHT22;8265;52.622;13.296;2022-10-26T07:34:11;8.60;99.90
16313;DHT22;8265;52.622;13.296;2022-10-26T07:39:32;8.90;99.90
16313;DHT22;8265;52.622;13.296;2022-10-26T07:44:53;9.30;99.90
16313;DHT22;8265;52.622;13.296;2022-10-26T07:50:14;9.40;99.90
16313;DHT22;8265;52.622;13.296;2022-10-26T07:55:35;9.50;99.90
16313;DHT22;8265;52.622;13.296;2022-10-26T08:00:56;9.70;99.90
16313;DHT22;8265;52.622;13.296;2022-10-26T08:06:17;9.80;99.90
16313;DHT22;8265;52.622;13.296;2022-10-26T08:11:37;10.00;99.90
16313;DHT22;8265;52.622;13.296;2022-10-26T08:16:59;10.10;99.90
16313;DHT22;8265;52.622;13.296;2022-10-26T08:22:20;10.30;99.90
16313;DHT22;8265;52.622;13.296;2022-10-26T08:27:40;10.50;99.90
16313;DHT22;8265;52.622;13.296;2022-10-26T08:33:02;10.60;99.90
16313;DHT22;8265;52.622;13.296;2022-10-26T08:38:22;10.70;99.90
16313;DHT22;8265;52.622;13.296;2022-10-26T08:43:53;10.90;99.90
16313;DHT22;8265;52.622;13.296;2022-10-26T08:49:07;11.00;99.90
16313;DHT22;8265;52.622;13.296;2022-10-26T08:54:29;11.20;99.90
16313;DHT22;8265;52.622;13.296;2022-10-26T08:59:49;11.40;99.90
16313;DHT22;8265;52.622;13.296;2022-10-26T09:05:13;11.60;99.90
16313;DHT22;8265;52.622;13.296;2022-10-26T09:10:36;11.80;99.90
16313;DHT22;8265;52.622;13.296;2022-10-26T09:15:53;11.90;99.90
16313;DHT22;8265;52.622;13.296;2022-10-26T09:21:14;12.20;99.90
16313;DHT22;8265;52.622;13.296;2022-10-26T09:26:35;12.50;99.90
16313;DHT22;8265;52.622;13.296;2022-10-26T09:31:52;12.70;99.90
16313;DHT22;8265;52.622;13.296;2022-10-26T09:37:14;13.00;99.90
16313;DHT22;8265;52.622;13.296;2022-10-26T09:42:37;13.30;99.90
16313;DHT22;8265;52.622;13.296;2022-10-26T09:47:56;13.60;99.90
16313;DHT22;8265;52.622;13.296;2022-10-26T09:53:16;13.80;99.90
16313;DHT22;8265;52.622;13.296;2022-10-26T09:58:39;14.10;99.90
16313;DHT22;8265;52.622;13.296;2022-10-26T10:04:15;14.40;99.90
16313;DHT22;8265;52.622;13.296;2022-10-26T10:09:19;14.60;99.90
16313;DHT22;8265;52.622;13.296;2022-10-26T10:14:39;14.70;99.90
16313;DHT22;8265;52.622;13.296;2022-10-26T10:20:08;14.80;99.90
16313;DHT22;8265;52.622;13.296;2022-10-26T10:25:25;15.00;99.90
16313;DHT22;8265;52.622;13.296;2022-10-26T10:30:42;15.20;99.90
16313;DHT22;8265;52.622;13.296;2022-10-26T10:36:06;15.50;99.90
16313;DHT22;8265;52.622;13.296;2022-10-26T10:41:26;15.60;99.90
16313;DHT22;8265;52.622;13.296;2022-10-26T10:46:46;15.90;99.90
16313;DHT22;8265;52.622;13.296;2022-10-26T10:52:06;16.10;99.90
16313;DHT22;8265;52.622;13.296;2022-10-26T10:57:28;15.90;99.90
16313;DHT22;8265;52.622;13.296;2022-10-26T11:08:11;16.50;99.90
16313;DHT22;8265;52.622;13.296;2022-10-26T11:13:32;16.70;99.90
16313;DHT22;8265;52.622;13.296;2022-10-26T11:18:53;16.50;99.90
16313;DHT22;8265;52.622;13.296;2022-10-26T11:24:15;16.50;99.90
16313;DHT22;8265;52.622;13.296;2022-10-26T11:29:37;16.60;99.90
16313;DHT22;8265;52.622;13.296;2022-10-26T11:34:57;16.70;99.90
16313;DHT22;8265;52.622;13.296;2022-10-26T11:40:20;16.70;99.90
16313;DHT22;8265;52.622;13.296;2022-10-26T11:45:38;16.70;99.90
16313;DHT22;8265;52.622;13.296;2022-10-26T11:50:57;16.90;99.90
16313;DHT22;8265;52.622;13.296;2022-10-26T11:56:23;16.90;99.90
16313;DHT22;8265;52.622;13.296;2022-10-26T12:01:39;16.80;99.90
16313;DHT22;8265;52.622;13.296;2022-10-26T12:07:01;16.90;99.90
16313;DHT22;8265;52.622;13.296;2022-10-26T12:12:24;17.00;99.90
16313;DHT22;8265;52.622;13.296;2022-10-26T12:17:44;17.20;99.90
16313;DHT22;8265;52.622;13.296;2022-10-26T12:23:04;17.20;99.90
16313;DHT22;8265;52.622;13.296;2022-10-26T12:28:39;17.40;99.90
16313;DHT22;8265;52.622;13.296;2022-10-26T12:33:51;17.40;99.90
16313;DHT22;8265;52.622;13.296;2022-10-26T12:39:25;17.50;99.90
16313;DHT22;8265;52.622;13.296;2022-10-26T12:44:34;17.60;99.90
16313;DHT22;8265;52.622;13.296;2022-10-26T12:50:21;17.60;99.90
16313;DHT22;8265;52.622;13.296;2022-10-26T12:55:33;17.60;99.90
16313;DHT22;8265;52.622;13.296;2022-10-26T13:00:30;17.50;99.90
16313;DHT22;8265;52.622;13.296;2022-10-26T13:06:08;17.60;99.90
16313;DHT22;8265;52.622;13.296;2022-10-26T13:11:14;17.60;99.90
16313;DHT22;8265;52.622;13.296;2022-10-26T13:16:33;17.70;99.90
16313;DHT22;8265;52.622;13.296;2022-10-26T13:21:54;17.70;99.90
16313;DHT22;8265;52.622;13.296;2022-10-26T13:27:38;17.70;99.90
16313;DHT22;8265;52.622;13.296;2022-10-26T13:32:37;17.70;99.90
16313;DHT22;8265;52.622;13.296;2022-10-26T13:37:57;17.70;99.90
16313;DHT22;8265;52.622;13.296;2022-10-26T13:43:20;17.70;99.90
16313;DHT22;8265;52.622;13.296;2022-10-26T13:48:39;17.80;99.90
16313;DHT22;8265;52.622;13.296;2022-10-26T13:54:00;17.80;99.90
16313;DHT22;8265;52.622;13.296;2022-10-26T13:59:20;17.70;99.90
16313;DHT22;8265;52.622;13.296;2022-10-26T14:04:41;17.80;99.90
16313;DHT22;8265;52.622;13.296;2022-10-26T14:10:03;17.80;99.90
16313;DHT22;8265;52.622;13.296;2022-10-26T14:15:24;17.70;99.90
16313;DHT22;8265;52.622;13.296;2022-10-26T14:20:48;17.70;99.90
16313;DHT22;8265;52.622;13.296;2022-10-26T14:26:05;17.60;99.90
16313;DHT22;8265;52.622;13.296;2022-10-26T14:31:27;17.60;99.90
16313;DHT22;8265;52.622;13.296;2022-10-26T14:36:48;17.50;99.90
16313;DHT22;8265;52.622;13.296;2022-10-26T14:42:09;17.30;99.90
16313;DHT22;8265;52.622;13.296;2022-10-26T14:47:30;17.00;99.90
16313;DHT22;8265;52.622;13.296;2022-10-26T14:52:51;16.70;99.90
16313;DHT22;8265;52.622;13.296;2022-10-26T14:58:15;16.40;99.90
16313;DHT22;8265;52.622;13.296;2022-10-26T15:03:32;16.20;99.90
16313;DHT22;8265;52.622;13.296;2022-10-26T15:08:55;15.90;99.90
16313;DHT22;8265;52.622;13.296;2022-10-26T15:14:16;15.80;99.90
16313;DHT22;8265;52.622;13.296;2022-10-26T15:19:35;15.70;99.90
16313;DHT22;8265;52.622;13.296;2022-10-26T15:24:57;15.40;99.90
16313;DHT22;8265;52.622;13.296;2022-10-26T15:30:20;15.00;99.90
16313;DHT22;8265;52.622;13.296;2022-10-26T15:35:38;15.00;99.90
16313;DHT22;8265;52.622;13.296;2022-10-26T15:40:59;14.90;99.90
16313;DHT22;8265;52.622;13.296;2022-10-26T15:46:20;14.60;99.90
16313;DHT22;8265;52.622;13.296;2022-10-26T15:51:41;14.30;99.90
16313;DHT22;8265;52.622;13.296;2022-10-26T15:57:02;14.10;99.90
16313;DHT22;8265;52.622;13.296;2022-10-26T16:02:23;13.90;99.90
16313;DHT22;8265;52.622;13.296;2022-10-26T16:07:45;13.70;99.90
16313;DHT22;8265;52.622;13.296;2022-10-26T16:13:05;13.80;99.90
16313;DHT22;8265;52.622;13.296;2022-10-26T16:18:26;13.80;99.90
16313;DHT22;8265;52.622;13.296;2022-10-26T16:23:47;13.40;99.90
16313;DHT22;8265;52.622;13.296;2022-10-26T16:29:08;13.30;99.90
16313;DHT22;8265;52.622;13.296;2022-10-26T16:34:29;13.30;99.90
16313;DHT22;8265;52.622;13.296;2022-10-26T16:39:50;13.30;99.90
16313;DHT22;8265;52.622;13.296;2022-10-26T16:45:11;13.90;99.90
16313;DHT22;8265;52.622;13.296;2022-10-26T16:50:31;13.60;99.90
16313;DHT22;8265;52.622;13.296;2022-10-26T16:55:52;13.50;99.90
16313;DHT22;8265;52.622;13.296;2022-10-26T17:01:14;13.40;99.90
16313;DHT22;8265;52.622;13.296;2022-10-26T17:06:34;13.70;99.90
16313;DHT22;8265;52.622;13.296;2022-10-26T17:11:55;13.80;99.90
16313;DHT22;8265;52.622;13.296;2022-10-26T17:17:16;13.70;99.90
16313;DHT22;8265;52.622;13.296;2022-10-26T17:22:37;13.60;99.90
16313;DHT22;8265;52.622;13.296;2022-10-26T17:27:58;13.50;99.90
16313;DHT22;8265;52.622;13.296;2022-10-26T17:33:19;13.90;99.90
16313;DHT22;8265;52.622;13.296;2022-10-26T17:38:40;13.70;99.90
16313;DHT22;8265;52.622;13.296;2022-10-26T17:44:01;13.50;99.90
16313;DHT22;8265;52.622;13.296;2022-10-26T17:49:22;13.50;99.90
16313;DHT22;8265;52.622;13.296;2022-10-26T17:54:43;13.40;99.90
16313;DHT22;8265;52.622;13.296;2022-10-26T18:00:05;13.60;99.90
16313;DHT22;8265;52.622;13.296;2022-10-26T18:05:25;13.70;99.90
16313;DHT22;8265;52.622;13.296;2022-10-26T18:10:49;13.50;99.90
16313;DHT22;8265;52.622;13.296;2022-10-26T18:16:09;13.40;99.90
16313;DHT22;8265;52.622;13.296;2022-10-26T18:21:29;13.30;99.90
16313;DHT22;8265;52.622;13.296;2022-10-26T18:26:49;13.30;99.90
16313;DHT22;8265;52.622;13.296;2022-10-26T18:32:10;13.60;99.90
16313;DHT22;8265;52.622;13.296;2022-10-26T18:37:31;13.80;99.90
16313;DHT22;8265;52.622;13.296;2022-10-26T18:42:52;13.60;99.90
16313;DHT22;8265;52.622;13.296;2022-10-26T18:48:13;13.70;99.90
16313;DHT22;8265;52.622;13.296;2022-10-26T18:53:34;13.80;99.90
16313;DHT22;8265;52.622;13.296;2022-10-26T18:58:56;13.80;99.90
16313;DHT22;8265;52.622;13.296;2022-10-26T19:04:16;13.80;99.90
16313;DHT22;8265;52.622;13.296;2022-10-26T19:09:37;13.60;99.90
16313;DHT22;8265;52.622;13.296;2022-10-26T19:14:58;13.40;99.90
16313;DHT22;8265;52.622;13.296;2022-10-26T19:20:19;13.20;99.90
16313;DHT22;8265;52.622;13.296;2022-10-26T19:25:40;12.90;99.90
16313;DHT22;8265;52.622;13.296;2022-10-26T19:31:02;13.30;99.90
16313;DHT22;8265;52.622;13.296;2022-10-26T19:36:22;12.90;99.90
16313;DHT22;8265;52.622;13.296;2022-10-26T19:41:43;12.60;99.90
16313;DHT22;8265;52.622;13.296;2022-10-26T19:47:04;12.50;99.90
16313;DHT22;8265;52.622;13.296;2022-10-26T19:52:25;12.40;99.90
16313;DHT22;8265;52.622;13.296;2022-10-26T19:57:45;12.20;99.90
16313;DHT22;8265;52.622;13.296;2022-10-26T20:03:08;12.10;99.90
16313;DHT22;8265;52.622;13.296;2022-10-26T20:08:28;12.40;99.90
16313;DHT22;8265;52.622;13.296;2022-10-26T20:13:48;12.20;99.90
16313;DHT22;8265;52.622;13.296;2022-10-26T20:19:09;11.90;99.90
16313;DHT22;8265;52.622;13.296;2022-10-26T20:24:30;11.70;99.90
16313;DHT22;8265;52.622;13.296;2022-10-26T20:29:51;11.50;99.90
16313;DHT22;8265;52.622;13.296;2022-10-26T20:35:12;11.50;99.90
16313;DHT22;8265;52.622;13.296;2022-10-26T20:40:34;11.40;99.90
16313;DHT22;8265;52.622;13.296;2022-10-26T20:45:55;11.30;99.90
16313;DHT22;8265;52.622;13.296;2022-10-26T20:51:16;11.30;99.90
16313;DHT22;8265;52.622;13.296;2022-10-26T20:56:36;11.90;99.90
16313;DHT22;8265;52.622;13.296;2022-10-26T21:01:57;11.60;99.90
16313;DHT22;8265;52.622;13.296;2022-10-26T21:07:18;11.30;99.90
16313;DHT22;8265;52.622;13.296;2022-10-26T21:12:39;11.10;99.90
16313;DHT22;8265;52.622;13.296;2022-10-26T21:18:00;11.40;99.90
16313;DHT22;8265;52.622;13.296;2022-10-26T21:23:21;11.10;99.90
16313;DHT22;8265;52.622;13.296;2022-10-26T21:28:42;11.10;99.90
16313;DHT22;8265;52.622;13.296;2022-10-26T21:34:03;10.90;99.90
16313;DHT22;8265;52.622;13.296;2022-10-26T21:39:24;10.80;99.90
16313;DHT22;8265;52.622;13.296;2022-10-26T21:44:45;10.80;99.90
16313;DHT22;8265;52.622;13.296;2022-10-26T21:50:07;10.70;99.90
16313;DHT22;8265;52.622;13.296;2022-10-26T21:55:27;10.40;99.90
16313;DHT22;8265;52.622;13.296;2022-10-26T22:00:48;10.50;99.90
16313;DHT22;8265;52.622;13.296;2022-10-26T22:06:09;10.60;99.90
16313;DHT22;8265;52.622;13.296;2022-10-26T22:11:30;10.40;99.90
16313;DHT22;8265;52.622;13.296;2022-10-26T22:16:51;10.80;99.90
16313;DHT22;8265;52.622;13.296;2022-10-26T22:22:12;11.00;99.90
16313;DHT22;8265;52.622;13.296;2022-10-26T22:27:33;10.60;99.90
16313;DHT22;8265;52.622;13.296;2022-10-26T22:32:54;10.30;99.90
16313;DHT22;8265;52.622;13.296;2022-10-26T22:38:15;10.20;99.90
16313;DHT22;8265;52.622;13.296;2022-10-26T22:43:36;10.20;99.90
16313;DHT22;8265;52.622;13.296;2022-10-26T22:48:57;10.00;99.90
16313;DHT22;8265;52.622;13.296;2022-10-26T22:54:17;10.00;99.90
16313;DHT22;8265;52.622;13.296;2022-10-26T22:59:39;9.90;99.90
16313;DHT22;8265;52.622;13.296;2022-10-26T23:04:59;10.30;99.90
16313;DHT22;8265;52.622;13.296;2022-10-26T23:10:20;10.10;99.90
16313;DHT22;8265;52.622;13.296;2022-10-26T23:15:41;9.90;99.90
16313;DHT22;8265;52.622;13.296;2022-10-26T23:21:03;9.80;99.90
16313;DHT22;8265;52.622;13.296;2022-10-26T23:26:23;9.70;99.90
16313;DHT22;8265;52.622;13.296;2022-10-26T23:31:44;9.70;99.90
16313;DHT22;8265;52.622;13.296;2022-10-26T23:37:05;9.90;99.90
16313;DHT22;8265;52.622;13.296;2022-10-26T23:42:26;9.80;99.90
16313;DHT22;8265;52.622;13.296;2022-10-26T23:47:47;9.70;99.90
16313;DHT22;8265;52.622;13.296;2022-10-26T23:53:08;9.50;99.90
16313;DHT22;8265;52.622;13.296;2022-10-26T23:58:29;9.60;99.90
